createdAt,value
2023-01-29T00:01:54.619Z,99415.16
2023-01-29T00:04:21.340Z,99474.63
2023-01-29T00:06:48.163Z,99414.59
2023-01-29T00:09:14.937Z,99444.22
2023-01-29T00:11:41.608Z,99450.19
2023-01-29T00:14:08.432Z,99419.03
2023-01-29T00:16:35.238Z,99454.25
2023-01-29T00:19:02.948Z,99407.06
2023-01-29T00:21:32.524Z,99425.72
2023-01-29T00:24:01.843Z,99416.00
2023-01-29T00:26:28.779Z,99413.28
2023-01-29T00:28:57.433Z,99458.38
2023-01-29T00:31:25.795Z,99410.44
2023-01-29T00:33:53.470Z,99364.06
2023-01-29T00:36:22.242Z,99350.34
2023-01-29T00:38:58.490Z,99485.09
2023-01-29T00:41:49.826Z,99480.97
2023-01-29T00:44:36.199Z,99434.84
2023-01-29T00:47:03.830Z,99418.94
2023-01-29T00:49:30.571Z,99374.59
2023-01-29T00:52:17.343Z,99470.22
2023-01-29T00:54:44.471Z,99408.75
2023-01-29T00:57:11.153Z,99472.66
2023-01-29T00:59:37.920Z,99372.91
2023-01-29T01:02:23.359Z,99400.94
2023-01-29T01:04:50.369Z,99407.81
2023-01-29T01:07:17.277Z,99483.47
2023-01-29T01:10:03.855Z,99449.84
2023-01-29T01:12:31.001Z,99396.34
2023-01-29T01:14:58.515Z,99394.34
2023-01-29T01:17:25.221Z,99445.94
2023-01-29T01:19:51.979Z,99451.09
2023-01-29T01:22:18.797Z,99452.44
2023-01-29T01:24:45.569Z,99500.81
2023-01-29T01:27:12.727Z,99404.78
2023-01-29T01:29:39.586Z,99479.53
2023-01-29T01:32:06.401Z,99443.84
2023-01-29T01:34:33.262Z,99421.72
2023-01-29T01:37:00.852Z,99455.53
2023-01-29T01:39:27.698Z,99476.34
2023-01-29T01:41:55.218Z,99506.91
2023-01-29T01:44:53.362Z,99508.44
2023-01-29T01:47:36.036Z,99439.22
2023-01-29T01:50:09.503Z,99447.09
2023-01-29T01:52:40.209Z,99421.28
2023-01-29T01:55:07.514Z,99526.81
2023-01-29T01:57:34.118Z,99509.53
2023-01-29T02:00:10.125Z,99519.91
2023-01-29T02:03:00.915Z,99526.94
2023-01-29T02:05:53.053Z,99472.75
2023-01-29T02:09:06.507Z,99509.28
2023-01-29T02:11:35.703Z,99495.38
2023-01-29T02:14:02.389Z,99530.59
2023-01-29T02:16:29.152Z,99524.41
2023-01-29T02:18:56.146Z,99490.13
2023-01-29T02:21:51.511Z,99524.81
2023-01-29T02:24:34.432Z,99524.66
2023-01-29T02:27:07.310Z,99525.50
2023-01-29T02:29:55.376Z,99535.16
2023-01-29T02:32:41.487Z,99493.19
2023-01-29T02:35:29.865Z,99535.50
2023-01-29T02:38:20.806Z,99542.03
2023-01-29T02:41:03.843Z,99533.75
2023-01-29T02:43:30.524Z,99545.81
2023-01-29T02:46:06.989Z,99548.44
2023-01-29T02:48:43.038Z,99559.13
2023-01-29T02:51:24.049Z,99563.69
2023-01-29T02:53:57.271Z,99534.44
2023-01-29T02:56:30.005Z,99551.66
2023-01-29T02:59:11.597Z,99494.41
2023-01-29T03:01:56.712Z,99544.38
2023-01-29T03:04:29.210Z,99542.16
2023-01-29T03:07:36.107Z,99570.16
2023-01-29T03:10:08.313Z,99519.28
2023-01-29T03:12:39.184Z,99559.31
2023-01-29T03:15:14.236Z,99549.97
2023-01-29T03:17:57.915Z,99565.41
2023-01-29T03:20:32.141Z,99554.63
2023-01-29T03:23:05.835Z,99537.25
2023-01-29T03:25:55.500Z,99527.03
2023-01-29T03:28:42.915Z,99512.69
2023-01-29T03:31:31.548Z,99555.22
2023-01-29T03:34:34.557Z,99548.28
2023-01-29T03:37:08.852Z,99580.59
2023-01-29T03:39:36.994Z,99574.66
2023-01-29T03:42:25.285Z,99539.03
2023-01-29T03:45:06.098Z,99573.13
2023-01-29T03:47:52.471Z,99558.34
2023-01-29T03:50:35.118Z,99572.88
2023-01-29T03:53:16.869Z,99577.25
2023-01-29T03:55:54.608Z,99550.44
2023-01-29T03:58:38.434Z,99568.53
2023-01-29T04:01:11.105Z,99569.38
2023-01-29T04:03:48.234Z,99506.91
2023-01-29T04:06:20.642Z,99565.69
2023-01-29T04:09:00.110Z,99582.81
2023-01-29T04:11:29.247Z,99560.22
2023-01-29T04:13:58.135Z,99572.38
2023-01-29T04:16:29.317Z,99571.44
2023-01-29T04:19:12.672Z,99576.00
2023-01-29T04:21:41.971Z,99579.63
2023-01-29T04:24:09.676Z,99562.06
2023-01-29T04:27:06.929Z,99584.22
2023-01-29T04:29:44.551Z,99576.81
2023-01-29T04:32:15.582Z,99539.66
2023-01-29T04:35:12.241Z,99589.41
2023-01-29T04:37:54.329Z,99578.22
2023-01-29T04:40:37.608Z,99580.38
2023-01-29T04:43:09.610Z,99563.00
2023-01-29T04:45:57.281Z,99572.47
2023-01-29T04:48:38.657Z,99541.75
2023-01-29T04:51:42.243Z,99575.63
2023-01-29T04:54:22.544Z,99571.72
2023-01-29T04:56:53.429Z,99574.34
2023-01-29T04:59:31.051Z,99579.19
2023-01-29T05:02:01.403Z,99524.84
2023-01-29T05:04:32.294Z,99585.13
2023-01-29T05:07:04.264Z,99574.63
2023-01-29T05:09:32.935Z,99583.50
2023-01-29T05:12:01.221Z,99524.56
2023-01-29T05:14:30.477Z,99550.88
2023-01-29T05:17:00.352Z,99571.34
2023-01-29T05:19:27.045Z,99585.75
2023-01-29T05:21:54.270Z,99576.34
2023-01-29T05:24:25.295Z,99565.25
2023-01-29T05:27:12.048Z,99585.75
2023-01-29T05:29:45.169Z,99594.50
2023-01-29T05:32:11.902Z,99596.13
2023-01-29T05:34:38.458Z,99587.78
2023-01-29T05:37:05.211Z,99606.84
2023-01-29T05:39:31.861Z,99578.03
2023-01-29T05:41:59.065Z,99591.25
2023-01-29T05:44:25.617Z,99592.34
2023-01-29T05:46:52.189Z,99603.47
2023-01-29T05:49:20.505Z,99607.69
2023-01-29T05:51:47.053Z,99614.72
2023-01-29T05:54:13.678Z,99607.19
2023-01-29T05:56:40.658Z,99590.28
2023-01-29T05:59:07.424Z,99614.81
2023-01-29T06:01:33.996Z,99604.00
2023-01-29T06:04:00.649Z,99596.41
2023-01-29T06:06:27.211Z,99592.56
2023-01-29T06:08:53.702Z,99570.41
2023-01-29T06:11:20.612Z,99631.03
2023-01-29T06:13:47.944Z,99638.91
2023-01-29T06:16:15.211Z,99644.78
2023-01-29T06:18:42.519Z,99622.94
2023-01-29T06:21:12.857Z,99648.44
2023-01-29T06:23:39.701Z,99632.75
2023-01-29T06:26:11.074Z,99638.53
2023-01-29T06:28:37.768Z,99628.25
2023-01-29T06:31:22.040Z,99651.34
2023-01-29T06:33:52.611Z,99636.28
2023-01-29T06:36:19.148Z,99646.31
2023-01-29T06:38:45.789Z,99624.38
2023-01-29T06:41:16.516Z,99656.53
2023-01-29T06:43:47.047Z,99657.16
2023-01-29T06:46:14.047Z,99625.63
2023-01-29T06:48:40.630Z,99608.25
2023-01-29T06:51:09.056Z,99666.50
2023-01-29T06:53:36.035Z,99668.97
2023-01-29T06:56:03.425Z,99671.44
2023-01-29T06:58:30.258Z,99676.78
2023-01-29T07:01:17.352Z,99660.47
2023-01-29T07:03:52.150Z,99667.66
2023-01-29T07:06:19.254Z,99686.50
2023-01-29T07:08:46.199Z,99679.88
2023-01-29T07:11:12.988Z,99672.91
2023-01-29T07:13:39.549Z,99669.75
2023-01-29T07:16:07.073Z,99662.47
2023-01-29T07:18:33.702Z,99679.41
2023-01-29T07:21:05.284Z,99655.50
2023-01-29T07:23:31.841Z,99686.50
2023-01-29T07:26:03.081Z,99695.41
2023-01-29T07:28:29.902Z,99678.41
2023-01-29T07:30:58.116Z,99695.94
2023-01-29T07:33:25.614Z,99698.53
2023-01-29T07:35:52.776Z,99637.44
2023-01-29T07:38:19.888Z,99637.59
2023-01-29T07:40:46.578Z,99703.97
2023-01-29T07:43:13.224Z,99647.66
2023-01-29T07:45:40.678Z,99712.00
2023-01-29T07:48:10.346Z,99692.88
2023-01-29T07:50:37.155Z,99683.38
2023-01-29T07:53:04.273Z,99680.00
2023-01-29T07:55:31.745Z,99698.31
2023-01-29T07:57:59.846Z,99722.38
2023-01-29T08:00:26.782Z,99716.25
2023-01-29T08:02:53.488Z,99711.88
2023-01-29T08:05:20.403Z,99700.94
2023-01-29T08:08:05.569Z,99685.78
2023-01-29T08:10:33.514Z,99696.25
2023-01-29T08:13:02.268Z,99716.75
2023-01-29T08:15:29.110Z,99723.41
2023-01-29T08:17:58.153Z,99667.50
2023-01-29T08:20:42.683Z,99663.06
2023-01-29T08:23:14.184Z,99718.66
2023-01-29T08:25:41.644Z,99730.13
2023-01-29T08:28:08.827Z,99712.44
2023-01-29T08:30:36.130Z,99729.31
2023-01-29T08:33:03.946Z,99712.97
2023-01-29T08:35:30.866Z,99718.72
2023-01-29T08:38:07.104Z,99745.31
2023-01-29T08:40:35.134Z,99714.63
2023-01-29T08:43:03.171Z,99752.81
2023-01-29T08:45:33.223Z,99749.44
2023-01-29T08:47:59.772Z,99748.03
2023-01-29T08:50:26.392Z,99765.28
2023-01-29T08:52:57.988Z,99750.06
2023-01-29T08:55:24.823Z,99721.56
2023-01-29T08:57:51.448Z,99758.47
2023-01-29T09:00:18.765Z,99782.03
2023-01-29T09:02:45.518Z,99764.84
2023-01-29T09:05:12.208Z,99780.16
2023-01-29T09:07:38.713Z,99783.69
2023-01-29T09:10:05.820Z,99774.38
2023-01-29T09:12:32.465Z,99765.59
2023-01-29T09:14:59.057Z,99780.13
2023-01-29T09:17:25.640Z,99762.91
2023-01-29T09:19:53.040Z,99780.44
2023-01-29T09:22:20.564Z,99788.09
2023-01-29T09:24:47.259Z,99763.81
2023-01-29T09:27:13.809Z,99757.72
2023-01-29T09:29:40.579Z,99766.31
2023-01-29T09:32:07.225Z,99732.69
2023-01-29T09:34:34.514Z,99771.91
2023-01-29T09:37:01.152Z,99739.66
2023-01-29T09:39:27.895Z,99764.09
2023-01-29T09:42:43.819Z,99769.78
2023-01-29T09:45:17.466Z,99771.91
2023-01-29T09:47:48.785Z,99744.06
2023-01-29T09:50:25.974Z,99768.31
2023-01-29T09:53:11.341Z,99760.41
2023-01-29T09:55:45.153Z,99757.91
2023-01-29T09:58:33.099Z,99763.47
2023-01-29T10:01:54.120Z,99771.94
2023-01-29T10:04:48.001Z,99762.56
2023-01-29T10:07:46.894Z,99754.16
2023-01-29T10:10:31.500Z,99728.97
2023-01-29T10:13:01.494Z,99762.13
2023-01-29T10:15:49.857Z,99765.84
2023-01-29T10:18:22.549Z,99771.22
2023-01-29T10:21:13.313Z,99758.44
2023-01-29T10:23:48.896Z,99752.91
2023-01-29T10:26:15.582Z,99729.50
2023-01-29T10:28:46.637Z,99750.63
2023-01-29T10:31:13.361Z,99745.31
2023-01-29T10:33:49.307Z,99685.09
2023-01-29T10:36:36.101Z,99699.53
2023-01-29T10:39:02.936Z,99718.28
2023-01-29T10:41:52.534Z,99729.22
2023-01-29T10:44:50.658Z,99725.25
2023-01-29T10:47:35.979Z,99726.78
2023-01-29T10:50:17.927Z,99713.63
2023-01-29T10:53:16.535Z,99726.63
2023-01-29T10:56:22.348Z,99718.78
2023-01-29T10:58:52.128Z,99707.53
2023-01-29T11:01:18.775Z,99692.53
2023-01-29T11:03:45.422Z,99668.78
2023-01-29T11:06:28.451Z,99696.56
2023-01-29T11:09:20.049Z,99687.88
2023-01-29T11:11:52.451Z,99686.91
2023-01-29T11:14:27.122Z,99648.47
2023-01-29T11:16:53.950Z,99642.69
2023-01-29T11:19:37.556Z,99665.13
2023-01-29T11:22:04.436Z,99660.75
2023-01-29T11:24:31.122Z,99633.03
2023-01-29T11:26:59.949Z,99651.47
2023-01-29T11:29:43.588Z,99632.84
2023-01-29T11:32:24.855Z,99622.25
2023-01-29T11:35:00.814Z,99611.63
2023-01-29T11:37:35.310Z,99608.81
2023-01-29T11:40:22.630Z,99601.19
2023-01-29T11:42:51.579Z,99568.06
2023-01-29T11:45:21.319Z,99603.19
2023-01-29T11:47:54.710Z,99568.09
2023-01-29T11:50:33.201Z,99587.31
2023-01-29T11:53:01.312Z,99533.91
2023-01-29T11:55:48.122Z,99585.44
2023-01-29T11:58:29.464Z,99556.72
2023-01-29T12:00:58.435Z,99571.63
2023-01-29T12:03:36.928Z,99574.38
2023-01-29T12:06:21.763Z,99569.63
2023-01-29T12:09:00.897Z,99558.19
2023-01-29T12:11:32.707Z,99546.66
2023-01-29T12:14:02.379Z,99555.69
2023-01-29T12:16:58.711Z,99561.16
2023-01-29T12:19:33.105Z,99513.72
2023-01-29T12:22:10.615Z,99552.25
2023-01-29T12:24:52.883Z,99547.19
2023-01-29T12:27:38.699Z,99491.88
2023-01-29T12:30:20.455Z,99535.31
2023-01-29T12:33:15.089Z,99523.88
2023-01-29T12:35:46.473Z,99529.19
2023-01-29T12:38:23.110Z,99537.28
2023-01-29T12:41:24.292Z,99532.19
2023-01-29T12:43:56.383Z,99523.22
2023-01-29T12:46:29.167Z,99503.56
2023-01-29T12:49:01.477Z,99509.69
2023-01-29T12:51:37.175Z,99496.06
2023-01-29T12:54:09.622Z,99505.28
2023-01-29T12:56:47.178Z,99444.38
2023-01-29T12:59:16.787Z,99486.88
2023-01-29T13:01:50.112Z,99469.31
2023-01-29T13:04:26.029Z,99481.81
2023-01-29T13:07:12.116Z,99467.03
2023-01-29T13:09:45.268Z,99465.72
2023-01-29T13:12:16.630Z,99467.94
2023-01-29T13:14:51.546Z,99469.00
2023-01-29T13:17:36.882Z,99460.28
2023-01-29T13:20:21.258Z,99449.63
2023-01-29T13:22:49.902Z,99432.97
2023-01-29T13:25:18.311Z,99444.38
2023-01-29T13:27:47.669Z,99441.41
2023-01-29T13:30:29.190Z,99432.63
2023-01-29T13:33:09.313Z,99399.94
2023-01-29T13:35:42.949Z,99395.09
2023-01-29T13:38:24.489Z,99420.13
2023-01-29T13:40:51.484Z,99417.69
2023-01-29T13:43:23.973Z,99388.47
2023-01-29T13:45:54.148Z,99364.19
2023-01-29T13:48:34.378Z,99398.72
2023-01-29T13:51:03.307Z,99420.06
2023-01-29T13:53:41.798Z,99401.59
2023-01-29T13:56:33.369Z,99406.97
2023-01-29T13:59:02.016Z,99407.66
2023-01-29T14:01:47.057Z,99411.31
2023-01-29T14:04:34.223Z,99416.00
2023-01-29T14:07:03.215Z,99409.97
2023-01-29T14:09:36.554Z,99409.63
2023-01-29T14:12:03.863Z,99406.63
2023-01-29T14:14:49.169Z,99405.38
2023-01-29T14:17:20.468Z,99365.56
2023-01-29T14:19:53.756Z,99386.84
2023-01-29T14:22:27.022Z,99357.31
2023-01-29T14:24:57.062Z,99357.47
2023-01-29T14:27:27.977Z,99392.59
2023-01-29T14:30:09.801Z,99394.47
2023-01-29T14:32:40.214Z,99394.59
2023-01-29T14:35:22.163Z,99402.25
2023-01-29T14:37:53.155Z,99369.50
2023-01-29T14:40:19.709Z,99393.59
2023-01-29T14:43:21.805Z,99397.66
2023-01-29T14:45:49.681Z,99354.38
2023-01-29T14:48:48.736Z,99406.47
2023-01-29T14:51:17.624Z,99396.13
2023-01-29T14:54:00.655Z,99392.16
2023-01-29T14:56:41.993Z,99402.34
2023-01-29T14:59:19.968Z,99395.94
2023-01-29T15:01:58.065Z,99381.00
2023-01-29T15:04:33.511Z,99395.09
2023-01-29T15:07:12.461Z,99378.84
2023-01-29T15:10:01.344Z,99389.66
2023-01-29T15:12:56.568Z,99387.88
2023-01-29T15:16:02.571Z,99394.81
2023-01-29T15:18:39.941Z,99382.91
2023-01-29T15:21:18.362Z,99379.47
2023-01-29T15:23:46.669Z,99379.69
2023-01-29T15:26:22.455Z,99377.72
2023-01-29T15:29:04.201Z,99356.16
2023-01-29T15:31:32.164Z,99378.38
2023-01-29T15:34:03.058Z,99389.66
2023-01-29T15:36:31.931Z,99365.34
2023-01-29T15:39:24.915Z,99395.84
2023-01-29T15:42:10.545Z,99397.88
2023-01-29T15:44:37.118Z,99408.72
2023-01-29T15:47:03.956Z,99404.19
2023-01-29T15:49:34.860Z,99402.19
2023-01-29T15:52:06.986Z,99380.56
2023-01-29T15:54:35.356Z,99377.91
2023-01-29T15:57:02.880Z,99387.09
2023-01-29T15:59:34.617Z,99375.69
2023-01-29T16:02:35.321Z,99410.56
2023-01-29T16:05:03.697Z,99415.94
2023-01-29T16:07:30.545Z,99421.31
2023-01-29T16:09:58.755Z,99415.34
2023-01-29T16:12:25.649Z,99407.53
2023-01-29T16:14:52.726Z,99421.00
2023-01-29T16:17:25.268Z,99362.38
2023-01-29T16:20:00.211Z,99404.94
2023-01-29T16:22:32.563Z,99359.19
2023-01-29T16:25:07.935Z,99404.09
2023-01-29T16:27:35.147Z,99364.59
2023-01-29T16:30:02.145Z,99335.03
2023-01-29T16:32:30.514Z,99327.19
2023-01-29T16:34:59.944Z,99406.16
2023-01-29T16:37:30.018Z,99405.75
2023-01-29T16:39:57.424Z,99409.13
2023-01-29T16:42:26.428Z,99407.28
2023-01-29T16:44:56.044Z,99416.56
2023-01-29T16:47:32.051Z,99396.91
2023-01-29T16:50:36.113Z,99410.91
2023-01-29T16:53:12.298Z,99412.84
2023-01-29T16:55:41.247Z,99415.53
2023-01-29T16:58:20.589Z,99417.19
2023-01-29T17:00:59.768Z,99409.75
2023-01-29T17:03:28.595Z,99410.13
2023-01-29T17:05:55.273Z,99402.56
2023-01-29T17:08:30.343Z,99404.63
2023-01-29T17:10:57.166Z,99414.41
2023-01-29T17:13:34.560Z,99415.53
2023-01-29T17:16:03.249Z,99420.16
2023-01-29T17:18:30.583Z,99413.22
2023-01-29T17:20:57.087Z,99391.25
2023-01-29T17:23:23.647Z,99384.84
2023-01-29T17:25:50.295Z,99424.56
2023-01-29T17:28:17.968Z,99400.34
2023-01-29T17:30:50.608Z,99422.31
2023-01-29T17:33:25.835Z,99432.06
2023-01-29T17:35:52.868Z,99430.66
2023-01-29T17:38:26.416Z,99441.44
2023-01-29T17:40:58.134Z,99426.38
2023-01-29T17:43:24.710Z,99389.38
2023-01-29T17:45:51.532Z,99432.75
2023-01-29T17:48:24.561Z,99347.97
2023-01-29T17:50:55.804Z,99352.19
2023-01-29T17:53:24.858Z,99446.81
2023-01-29T17:55:53.208Z,99368.53
2023-01-29T17:58:27.526Z,99444.06
2023-01-29T18:00:55.092Z,99416.69
2023-01-29T18:03:22.894Z,99457.06
2023-01-29T18:05:50.469Z,99448.66
2023-01-29T18:08:22.360Z,99455.75
2023-01-29T18:10:49.050Z,99430.94
2023-01-29T18:13:15.690Z,99417.22
2023-01-29T18:15:42.317Z,99461.09
2023-01-29T18:18:14.103Z,99388.81
2023-01-29T18:20:41.401Z,99451.13
2023-01-29T18:23:08.288Z,99383.16
2023-01-29T18:25:35.219Z,99430.19
2023-01-29T18:28:02.116Z,99457.06
2023-01-29T18:30:28.994Z,99459.63
2023-01-29T18:32:55.521Z,99460.34
2023-01-29T18:35:22.141Z,99455.63
2023-01-29T18:37:48.719Z,99455.41
2023-01-29T18:40:17.290Z,99454.22
2023-01-29T18:42:45.506Z,99441.28
2023-01-29T18:45:12.791Z,99465.69
2023-01-29T18:47:40.031Z,99337.38
2023-01-29T18:50:08.471Z,99460.47
2023-01-29T18:52:35.050Z,99443.22
2023-01-29T18:55:01.582Z,99462.97
2023-01-29T18:58:25.502Z,99428.97
2023-01-29T19:00:15.714Z,99470.44
2023-01-29T19:02:42.931Z,99464.75
2023-01-29T19:05:09.638Z,99464.50
2023-01-29T19:07:36.105Z,99473.78
2023-01-29T19:10:06.679Z,99478.50
2023-01-29T19:12:34.394Z,99472.56
2023-01-29T19:15:01.125Z,99462.91
2023-01-29T19:17:28.073Z,99469.75
2023-01-29T19:19:56.516Z,99464.66
2023-01-29T19:22:23.179Z,99462.09
2023-01-29T19:24:49.749Z,99419.00
2023-01-29T19:27:16.372Z,99381.69
2023-01-29T19:29:43.094Z,99423.06
2023-01-29T19:32:09.948Z,99479.63
2023-01-29T19:34:36.790Z,99464.63
2023-01-29T19:37:03.791Z,99476.94
2023-01-29T19:39:33.690Z,99435.09
2023-01-29T19:42:01.416Z,99470.16
2023-01-29T19:44:28.048Z,99448.94
2023-01-29T19:46:54.695Z,99479.59
2023-01-29T19:49:21.370Z,99473.09
2023-01-29T19:51:48.166Z,99480.88
2023-01-29T19:54:14.823Z,99430.47
2023-01-29T19:56:41.624Z,99434.50
2023-01-29T19:59:08.451Z,99440.88
2023-01-29T20:01:36.603Z,99419.94
2023-01-29T20:04:06.075Z,99411.34
2023-01-29T20:06:33.150Z,99467.66
2023-01-29T20:09:02.158Z,99470.75
2023-01-29T20:11:29.392Z,99438.84
2023-01-29T20:13:56.644Z,99433.22
2023-01-29T20:16:25.126Z,99328.47
2023-01-29T20:18:52.311Z,99434.41
2023-01-29T20:21:22.135Z,99467.84
2023-01-29T20:23:51.189Z,99452.41
2023-01-29T20:26:18.296Z,99471.25
2023-01-29T20:28:49.352Z,99455.81
2023-01-29T20:31:16.943Z,99450.22
2023-01-29T20:33:44.343Z,99472.41
2023-01-29T20:36:13.325Z,99458.13
2023-01-29T20:38:40.525Z,99419.09
2023-01-29T20:41:15.755Z,99387.84
2023-01-29T20:43:44.136Z,99432.34
2023-01-29T20:46:11.774Z,99475.13
2023-01-29T20:48:39.142Z,99457.38
2023-01-29T20:51:15.901Z,99477.97
2023-01-29T20:53:45.586Z,99472.47
2023-01-29T20:56:13.808Z,99399.56
2023-01-29T20:58:41.198Z,99471.28
2023-01-29T21:01:12.403Z,99472.25
2023-01-29T21:03:40.173Z,99472.97
2023-01-29T21:06:10.917Z,99466.16
2023-01-29T21:08:38.117Z,99471.75
2023-01-29T21:11:09.267Z,99474.94
2023-01-29T21:13:36.216Z,99450.31
2023-01-29T21:16:03.573Z,99428.56
2023-01-29T21:18:30.752Z,99478.84
2023-01-29T21:20:57.833Z,99482.53
2023-01-29T21:23:24.758Z,99448.41
2023-01-29T21:25:51.471Z,99476.00
2023-01-29T21:28:18.204Z,99467.56
2023-01-29T21:30:45.321Z,99454.44
2023-01-29T21:33:12.325Z,99449.91
2023-01-29T21:35:39.436Z,99475.38
2023-01-29T21:38:09.741Z,99457.31
2023-01-29T21:40:36.494Z,99474.13
2023-01-29T21:43:13.045Z,99436.47
2023-01-29T21:45:40.884Z,99473.34
2023-01-29T21:48:09.085Z,99448.22
2023-01-29T21:50:35.789Z,99485.09
2023-01-29T21:53:02.465Z,99483.41
2023-01-29T21:55:29.512Z,99477.47
2023-01-29T21:57:56.078Z,99474.19
2023-01-29T22:00:22.787Z,99466.38
2023-01-29T22:02:50.141Z,99437.59
2023-01-29T22:05:19.795Z,99431.59
2023-01-29T22:07:48.221Z,99460.47
2023-01-29T22:10:15.723Z,99471.75
2023-01-29T22:12:43.761Z,99458.13
2023-01-29T22:15:11.636Z,99452.09
2023-01-29T22:17:41.001Z,99456.31
2023-01-29T22:20:12.004Z,99471.31
2023-01-29T22:22:38.660Z,99453.44
2023-01-29T22:25:05.847Z,99461.59
2023-01-29T22:27:33.784Z,99455.66
2023-01-29T22:30:00.383Z,99442.63
2023-01-29T22:32:27.111Z,99464.09
2023-01-29T22:34:53.706Z,99461.00
2023-01-29T22:37:20.280Z,99444.41
2023-01-29T22:39:47.031Z,99428.22
2023-01-29T22:42:13.597Z,99461.50
2023-01-29T22:44:40.230Z,99439.81
2023-01-29T22:47:06.753Z,99446.47
2023-01-29T22:49:33.302Z,99432.75
2023-01-29T22:52:11.966Z,99459.47
2023-01-29T22:54:40.620Z,99451.84
2023-01-29T22:57:10.871Z,99444.25
2023-01-29T22:59:38.030Z,99430.91
2023-01-29T23:02:05.223Z,99457.31
2023-01-29T23:04:31.967Z,99354.25
2023-01-29T23:06:58.863Z,99448.47
2023-01-29T23:09:25.536Z,99450.41
2023-01-29T23:11:52.108Z,99431.66
2023-01-29T23:14:18.938Z,99426.28
2023-01-29T23:16:45.539Z,99430.41
2023-01-29T23:19:12.402Z,99388.97
2023-01-29T23:21:39.706Z,99419.34
2023-01-29T23:24:07.484Z,99421.31
2023-01-29T23:26:53.039Z,99426.78
2023-01-29T23:29:19.851Z,99422.94
2023-01-29T23:31:46.506Z,99365.09
2023-01-29T23:34:14.013Z,99395.31
2023-01-29T23:36:40.991Z,99346.97
2023-01-29T23:39:08.189Z,99419.00
2023-01-29T23:41:35.251Z,99421.81
2023-01-29T23:44:01.976Z,99376.97
2023-01-29T23:46:28.706Z,99418.34
2023-01-29T23:48:55.334Z,99396.69
2023-01-29T23:51:22.029Z,99414.09
2023-01-29T23:53:48.735Z,99342.59
2023-01-29T23:56:15.332Z,99412.19
2023-01-29T23:58:41.996Z,99367.16
